sensor_id;sensor_type;location;lat;lon;timestamp;P1;durP1;ratioP1;P2;durP2;ratioP2
52294;SDS011;38243;53.212;6.574;2023-04-19T00:01:51;1.60;;;1.30;;
52294;SDS011;38243;53.212;6.574;2023-04-19T00:04:16;1.50;;;1.35;;
52294;SDS011;38243;53.212;6.574;2023-04-19T00:06:42;2.20;;;1.45;;
52294;SDS011;38243;53.212;6.574;2023-04-19T00:09:08;2.10;;;1.23;;
52294;SDS011;38243;53.212;6.574;2023-04-19T00:11:34;1.40;;;1.17;;
52294;SDS011;38243;53.212;6.574;2023-04-19T00:14:00;1.40;;;1.30;;
52294;SDS011;38243;53.212;6.574;2023-04-19T00:16:25;1.47;;;1.30;;
52294;SDS011;38243;53.212;6.574;2023-04-19T00:18:51;2.40;;;1.27;;
52294;SDS011;38243;53.212;6.574;2023-04-19T00:21:17;3.83;;;1.67;;
52294;SDS011;38243;53.212;6.574;2023-04-19T00:23:42;1.88;;;1.48;;
52294;SDS011;38243;53.212;6.574;2023-04-19T00:26:08;1.57;;;1.30;;
52294;SDS011;38243;53.212;6.574;2023-04-19T00:28:35;2.97;;;1.35;;
52294;SDS011;38243;53.212;6.574;2023-04-19T00:31:01;2.40;;;1.70;;
52294;SDS011;38243;53.212;6.574;2023-04-19T00:33:27;1.60;;;1.50;;
52294;SDS011;38243;53.212;6.574;2023-04-19T00:35:53;2.20;;;1.30;;
52294;SDS011;38243;53.212;6.574;2023-04-19T00:38:18;1.40;;;1.20;;
52294;SDS011;38243;53.212;6.574;2023-04-19T00:40:44;1.48;;;1.20;;
52294;SDS011;38243;53.212;6.574;2023-04-19T00:43:10;2.33;;;1.60;;
52294;SDS011;38243;53.212;6.574;2023-04-19T00:45:36;2.00;;;1.40;;
52294;SDS011;38243;53.212;6.574;2023-04-19T00:48:02;2.67;;;1.50;;
52294;SDS011;38243;53.212;6.574;2023-04-19T00:50:28;1.92;;;1.58;;
52294;SDS011;38243;53.212;6.574;2023-04-19T00:52:54;1.63;;;1.35;;
52294;SDS011;38243;53.212;6.574;2023-04-19T00:55:21;2.22;;;1.40;;
52294;SDS011;38243;53.212;6.574;2023-04-19T00:57:48;2.72;;;1.50;;
52294;SDS011;38243;53.212;6.574;2023-04-19T01:00:16;2.00;;;1.80;;
52294;SDS011;38243;53.212;6.574;2023-04-19T01:02:42;1.30;;;1.20;;
52294;SDS011;38243;53.212;6.574;2023-04-19T01:05:08;2.63;;;1.70;;
52294;SDS011;38243;53.212;6.574;2023-04-19T01:07:33;1.67;;;1.35;;
52294;SDS011;38243;53.212;6.574;2023-04-19T01:09:59;2.30;;;1.53;;
52294;SDS011;38243;53.212;6.574;2023-04-19T01:12:25;1.58;;;1.40;;
52294;SDS011;38243;53.212;6.574;2023-04-19T01:14:51;1.92;;;1.45;;
52294;SDS011;38243;53.212;6.574;2023-04-19T01:17:17;2.63;;;1.60;;
52294;SDS011;38243;53.212;6.574;2023-04-19T01:19:43;1.92;;;1.30;;
52294;SDS011;38243;53.212;6.574;2023-04-19T01:22:15;2.80;;;1.70;;
52294;SDS011;38243;53.212;6.574;2023-04-19T01:24:42;2.43;;;1.70;;
52294;SDS011;38243;53.212;6.574;2023-04-19T01:27:08;1.75;;;1.60;;
52294;SDS011;38243;53.212;6.574;2023-04-19T01:29:34;3.00;;;1.90;;
52294;SDS011;38243;53.212;6.574;2023-04-19T01:31:59;1.70;;;1.50;;
52294;SDS011;38243;53.212;6.574;2023-04-19T01:34:25;2.43;;;1.60;;
52294;SDS011;38243;53.212;6.574;2023-04-19T01:36:51;1.88;;;1.60;;
52294;SDS011;38243;53.212;6.574;2023-04-19T01:39:17;2.03;;;1.67;;
52294;SDS011;38243;53.212;6.574;2023-04-19T01:41:43;1.88;;;1.40;;
52294;SDS011;38243;53.212;6.574;2023-04-19T01:44:08;2.55;;;1.70;;
52294;SDS011;38243;53.212;6.574;2023-04-19T01:46:34;2.00;;;1.70;;
52294;SDS011;38243;53.212;6.574;2023-04-19T01:49:02;2.60;;;2.00;;
52294;SDS011;38243;53.212;6.574;2023-04-19T01:51:28;2.03;;;1.80;;
52294;SDS011;38243;53.212;6.574;2023-04-19T01:53:54;2.05;;;1.70;;
52294;SDS011;38243;53.212;6.574;2023-04-19T01:56:20;2.43;;;1.70;;
52294;SDS011;38243;53.212;6.574;2023-04-19T01:58:46;1.75;;;1.50;;
52294;SDS011;38243;53.212;6.574;2023-04-19T02:01:11;1.83;;;1.50;;
52294;SDS011;38243;53.212;6.574;2023-04-19T02:03:37;2.43;;;1.80;;
52294;SDS011;38243;53.212;6.574;2023-04-19T02:06:04;1.80;;;1.67;;
52294;SDS011;38243;53.212;6.574;2023-04-19T02:08:30;2.10;;;1.63;;
52294;SDS011;38243;53.212;6.574;2023-04-19T02:10:56;1.70;;;1.40;;
52294;SDS011;38243;53.212;6.574;2023-04-19T02:13:22;2.07;;;1.67;;
52294;SDS011;38243;53.212;6.574;2023-04-19T02:15:47;2.60;;;1.60;;
52294;SDS011;38243;53.212;6.574;2023-04-19T02:18:13;1.97;;;1.60;;
52294;SDS011;38243;53.212;6.574;2023-04-19T02:20:42;3.03;;;1.90;;
52294;SDS011;38243;53.212;6.574;2023-04-19T02:23:08;3.55;;;1.80;;
52294;SDS011;38243;53.212;6.574;2023-04-19T02:25:34;3.67;;;1.70;;
52294;SDS011;38243;53.212;6.574;2023-04-19T02:27:59;2.25;;;1.88;;
52294;SDS011;38243;53.212;6.574;2023-04-19T02:30:25;2.97;;;1.50;;
52294;SDS011;38243;53.212;6.574;2023-04-19T02:32:51;3.33;;;1.92;;
52294;SDS011;38243;53.212;6.574;2023-04-19T02:35:18;2.00;;;1.60;;
52294;SDS011;38243;53.212;6.574;2023-04-19T02:37:44;3.35;;;1.65;;
52294;SDS011;38243;53.212;6.574;2023-04-19T02:40:10;2.70;;;1.63;;
52294;SDS011;38243;53.212;6.574;2023-04-19T02:42:36;3.27;;;1.70;;
52294;SDS011;38243;53.212;6.574;2023-04-19T02:45:01;3.50;;;1.75;;
52294;SDS011;38243;53.212;6.574;2023-04-19T02:47:27;1.70;;;1.53;;
52294;SDS011;38243;53.212;6.574;2023-04-19T02:49:53;2.85;;;1.90;;
52294;SDS011;38243;53.212;6.574;2023-04-19T02:52:19;3.53;;;1.92;;
52294;SDS011;38243;53.212;6.574;2023-04-19T02:54:45;4.32;;;1.95;;
52294;SDS011;38243;53.212;6.574;2023-04-19T02:57:10;4.70;;;2.13;;
52294;SDS011;38243;53.212;6.574;2023-04-19T02:59:36;3.63;;;2.17;;
52294;SDS011;38243;53.212;6.574;2023-04-19T03:02:02;3.60;;;1.80;;
52294;SDS011;38243;53.212;6.574;2023-04-19T03:04:27;3.10;;;2.10;;
52294;SDS011;38243;53.212;6.574;2023-04-19T03:06:55;3.55;;;2.03;;
52294;SDS011;38243;53.212;6.574;2023-04-19T03:09:21;2.33;;;2.00;;
52294;SDS011;38243;53.212;6.574;2023-04-19T03:11:46;3.57;;;2.20;;
52294;SDS011;38243;53.212;6.574;2023-04-19T03:14:12;2.83;;;2.40;;
52294;SDS011;38243;53.212;6.574;2023-04-19T03:16:38;3.37;;;1.90;;
52294;SDS011;38243;53.212;6.574;2023-04-19T03:19:03;4.00;;;2.33;;
52294;SDS011;38243;53.212;6.574;2023-04-19T03:21:29;9.00;;;2.60;;
52294;SDS011;38243;53.212;6.574;2023-04-19T03:23:55;4.27;;;2.20;;
52294;SDS011;38243;53.212;6.574;2023-04-19T03:26:21;4.47;;;2.50;;
52294;SDS011;38243;53.212;6.574;2023-04-19T03:28:46;3.27;;;2.00;;
52294;SDS011;38243;53.212;6.574;2023-04-19T03:31:12;2.72;;;2.00;;
52294;SDS011;38243;53.212;6.574;2023-04-19T03:33:38;3.88;;;1.92;;
52294;SDS011;38243;53.212;6.574;2023-04-19T03:36:04;3.50;;;2.00;;
52294;SDS011;38243;53.212;6.574;2023-04-19T03:38:31;5.93;;;2.15;;
52294;SDS011;38243;53.212;6.574;2023-04-19T03:40:57;2.83;;;1.90;;
52294;SDS011;38243;53.212;6.574;2023-04-19T03:43:22;2.40;;;1.90;;
52294;SDS011;38243;53.212;6.574;2023-04-19T03:45:48;3.65;;;1.95;;
52294;SDS011;38243;53.212;6.574;2023-04-19T03:48:14;3.47;;;2.20;;
52294;SDS011;38243;53.212;6.574;2023-04-19T03:50:40;3.65;;;2.10;;
52294;SDS011;38243;53.212;6.574;2023-04-19T03:53:06;3.90;;;2.63;;
52294;SDS011;38243;53.212;6.574;2023-04-19T03:55:32;5.40;;;2.67;;
52294;SDS011;38243;53.212;6.574;2023-04-19T03:57:58;3.15;;;2.40;;
52294;SDS011;38243;53.212;6.574;2023-04-19T04:00:23;3.07;;;1.97;;
52294;SDS011;38243;53.212;6.574;2023-04-19T04:02:50;3.63;;;2.22;;
52294;SDS011;38243;53.212;6.574;2023-04-19T04:05:16;4.10;;;2.43;;
52294;SDS011;38243;53.212;6.574;2023-04-19T04:07:41;3.92;;;2.15;;
52294;SDS011;38243;53.212;6.574;2023-04-19T04:10:07;4.47;;;2.37;;
52294;SDS011;38243;53.212;6.574;2023-04-19T04:12:33;2.42;;;1.83;;
52294;SDS011;38243;53.212;6.574;2023-04-19T04:14:59;3.05;;;1.77;;
52294;SDS011;38243;53.212;6.574;2023-04-19T04:17:24;2.73;;;1.73;;
52294;SDS011;38243;53.212;6.574;2023-04-19T04:19:50;4.07;;;1.70;;
52294;SDS011;38243;53.212;6.574;2023-04-19T04:22:16;4.50;;;1.90;;
52294;SDS011;38243;53.212;6.574;2023-04-19T04:24:42;3.10;;;1.70;;
52294;SDS011;38243;53.212;6.574;2023-04-19T04:27:08;3.05;;;2.03;;
52294;SDS011;38243;53.212;6.574;2023-04-19T04:29:38;2.47;;;1.70;;
52294;SDS011;38243;53.212;6.574;2023-04-19T04:32:05;3.45;;;2.15;;
52294;SDS011;38243;53.212;6.574;2023-04-19T04:34:35;3.28;;;2.00;;
52294;SDS011;38243;53.212;6.574;2023-04-19T04:37:01;3.13;;;1.80;;
52294;SDS011;38243;53.212;6.574;2023-04-19T04:39:28;4.18;;;1.80;;
52294;SDS011;38243;53.212;6.574;2023-04-19T04:41:54;2.92;;;1.85;;
52294;SDS011;38243;53.212;6.574;2023-04-19T04:44:22;3.00;;;2.03;;
52294;SDS011;38243;53.212;6.574;2023-04-19T04:46:48;3.95;;;1.80;;
52294;SDS011;38243;53.212;6.574;2023-04-19T04:49:14;2.97;;;2.10;;
52294;SDS011;38243;53.212;6.574;2023-04-19T04:51:40;2.60;;;1.73;;
52294;SDS011;38243;53.212;6.574;2023-04-19T04:54:05;3.00;;;2.20;;
52294;SDS011;38243;53.212;6.574;2023-04-19T04:56:31;4.67;;;1.90;;
52294;SDS011;38243;53.212;6.574;2023-04-19T04:58:57;3.65;;;1.70;;
52294;SDS011;38243;53.212;6.574;2023-04-19T05:01:23;2.55;;;1.73;;
52294;SDS011;38243;53.212;6.574;2023-04-19T05:03:49;2.87;;;1.77;;
52294;SDS011;38243;53.212;6.574;2023-04-19T05:06:15;3.57;;;1.60;;
52294;SDS011;38243;53.212;6.574;2023-04-19T05:08:42;3.08;;;1.92;;
52294;SDS011;38243;53.212;6.574;2023-04-19T05:11:08;4.88;;;1.92;;
52294;SDS011;38243;53.212;6.574;2023-04-19T05:13:34;1.95;;;1.48;;
52294;SDS011;38243;53.212;6.574;2023-04-19T05:16:00;2.87;;;1.93;;
52294;SDS011;38243;53.212;6.574;2023-04-19T05:18:26;2.00;;;1.55;;
52294;SDS011;38243;53.212;6.574;2023-04-19T05:20:52;2.88;;;2.08;;
52294;SDS011;38243;53.212;6.574;2023-04-19T05:23:18;2.63;;;1.60;;
52294;SDS011;38243;53.212;6.574;2023-04-19T05:25:43;3.97;;;1.77;;
52294;SDS011;38243;53.212;6.574;2023-04-19T05:28:09;2.30;;;1.70;;
52294;SDS011;38243;53.212;6.574;2023-04-19T05:30:35;3.07;;;1.63;;
52294;SDS011;38243;53.212;6.574;2023-04-19T05:33:00;2.17;;;1.50;;
52294;SDS011;38243;53.212;6.574;2023-04-19T05:35:26;2.57;;;1.50;;
52294;SDS011;38243;53.212;6.574;2023-04-19T05:37:52;4.53;;;1.80;;
52294;SDS011;38243;53.212;6.574;2023-04-19T05:40:17;4.13;;;2.00;;
52294;SDS011;38243;53.212;6.574;2023-04-19T05:42:43;4.60;;;1.73;;
52294;SDS011;38243;53.212;6.574;2023-04-19T05:45:09;1.92;;;1.60;;
52294;SDS011;38243;53.212;6.574;2023-04-19T05:47:35;3.92;;;1.70;;
52294;SDS011;38243;53.212;6.574;2023-04-19T05:50:02;4.37;;;2.03;;
52294;SDS011;38243;53.212;6.574;2023-04-19T05:52:28;5.35;;;1.77;;
52294;SDS011;38243;53.212;6.574;2023-04-19T05:54:54;3.22;;;1.70;;
52294;SDS011;38243;53.212;6.574;2023-04-19T05:57:20;3.53;;;1.60;;
52294;SDS011;38243;53.212;6.574;2023-04-19T05:59:45;2.73;;;1.63;;
52294;SDS011;38243;53.212;6.574;2023-04-19T06:02:11;2.55;;;1.65;;
52294;SDS011;38243;53.212;6.574;2023-04-19T06:04:37;1.70;;;1.40;;
52294;SDS011;38243;53.212;6.574;2023-04-19T06:07:03;3.13;;;1.98;;
52294;SDS011;38243;53.212;6.574;2023-04-19T06:09:28;3.13;;;1.42;;
52294;SDS011;38243;53.212;6.574;2023-04-19T06:11:54;2.97;;;1.60;;
52294;SDS011;38243;53.212;6.574;2023-04-19T06:14:20;2.40;;;1.50;;
52294;SDS011;38243;53.212;6.574;2023-04-19T06:16:46;2.15;;;1.50;;
52294;SDS011;38243;53.212;6.574;2023-04-19T06:19:12;3.35;;;1.55;;
52294;SDS011;38243;53.212;6.574;2023-04-19T06:21:40;3.15;;;1.60;;
52294;SDS011;38243;53.212;6.574;2023-04-19T06:24:06;3.05;;;1.35;;
52294;SDS011;38243;53.212;6.574;2023-04-19T06:26:32;3.40;;;1.55;;
52294;SDS011;38243;53.212;6.574;2023-04-19T06:28:58;3.30;;;1.40;;
52294;SDS011;38243;53.212;6.574;2023-04-19T06:31:23;2.57;;;1.40;;
52294;SDS011;38243;53.212;6.574;2023-04-19T06:33:49;2.22;;;1.40;;
52294;SDS011;38243;53.212;6.574;2023-04-19T06:36:15;2.30;;;1.60;;
52294;SDS011;38243;53.212;6.574;2023-04-19T06:38:41;2.28;;;1.45;;
52294;SDS011;38243;53.212;6.574;2023-04-19T06:41:08;3.20;;;1.55;;
52294;SDS011;38243;53.212;6.574;2023-04-19T06:43:34;1.77;;;1.13;;
52294;SDS011;38243;53.212;6.574;2023-04-19T06:46:00;3.72;;;1.50;;
52294;SDS011;38243;53.212;6.574;2023-04-19T06:48:28;3.95;;;1.30;;
52294;SDS011;38243;53.212;6.574;2023-04-19T06:50:55;2.85;;;1.30;;
52294;SDS011;38243;53.212;6.574;2023-04-19T06:53:21;1.92;;;1.13;;
52294;SDS011;38243;53.212;6.574;2023-04-19T06:55:47;2.22;;;1.08;;
52294;SDS011;38243;53.212;6.574;2023-04-19T06:58:13;3.15;;;1.00;;
52294;SDS011;38243;53.212;6.574;2023-04-19T07:00:38;2.50;;;1.20;;
52294;SDS011;38243;53.212;6.574;2023-04-19T07:03:04;2.08;;;1.05;;
52294;SDS011;38243;53.212;6.574;2023-04-19T07:05:30;3.40;;;1.30;;
52294;SDS011;38243;53.212;6.574;2023-04-19T07:07:56;1.20;;;0.90;;
52294;SDS011;38243;53.212;6.574;2023-04-19T07:10:22;2.28;;;1.20;;
52294;SDS011;38243;53.212;6.574;2023-04-19T07:12:48;2.50;;;1.00;;
52294;SDS011;38243;53.212;6.574;2023-04-19T07:15:15;2.30;;;1.20;;
52294;SDS011;38243;53.212;6.574;2023-04-19T07:17:41;1.65;;;1.10;;
52294;SDS011;38243;53.212;6.574;2023-04-19T07:20:07;2.67;;;1.20;;
52294;SDS011;38243;53.212;6.574;2023-04-19T07:22:33;4.28;;;1.05;;
52294;SDS011;38243;53.212;6.574;2023-04-19T07:24:59;1.85;;;1.00;;
52294;SDS011;38243;53.212;6.574;2023-04-19T07:27:25;2.07;;;0.90;;
52294;SDS011;38243;53.212;6.574;2023-04-19T07:29:51;2.08;;;1.10;;
52294;SDS011;38243;53.212;6.574;2023-04-19T07:32:17;1.92;;;0.70;;
52294;SDS011;38243;53.212;6.574;2023-04-19T07:34:43;1.48;;;0.90;;
52294;SDS011;38243;53.212;6.574;2023-04-19T07:37:10;1.63;;;0.90;;
52294;SDS011;38243;53.212;6.574;2023-04-19T07:39:36;1.92;;;0.77;;
52294;SDS011;38243;53.212;6.574;2023-04-19T07:42:03;0.57;;;0.50;;
52294;SDS011;38243;53.212;6.574;2023-04-19T07:44:28;2.10;;;0.70;;
52294;SDS011;38243;53.212;6.574;2023-04-19T07:46:54;2.90;;;0.90;;
52294;SDS011;38243;53.212;6.574;2023-04-19T07:49:20;1.95;;;0.80;;
52294;SDS011;38243;53.212;6.574;2023-04-19T07:51:46;5.13;;;1.33;;
52294;SDS011;38243;53.212;6.574;2023-04-19T07:54:11;2.47;;;0.73;;
52294;SDS011;38243;53.212;6.574;2023-04-19T07:56:37;1.93;;;0.70;;
52294;SDS011;38243;53.212;6.574;2023-04-19T07:59:03;1.55;;;0.82;;
52294;SDS011;38243;53.212;6.574;2023-04-19T08:01:28;1.93;;;0.77;;
52294;SDS011;38243;53.212;6.574;2023-04-19T08:03:54;1.42;;;0.80;;
52294;SDS011;38243;53.212;6.574;2023-04-19T08:06:20;2.23;;;0.60;;
52294;SDS011;38243;53.212;6.574;2023-04-19T08:08:46;2.92;;;0.68;;
52294;SDS011;38243;53.212;6.574;2023-04-19T08:11:12;2.40;;;0.70;;
52294;SDS011;38243;53.212;6.574;2023-04-19T08:13:38;4.20;;;0.90;;
52294;SDS011;38243;53.212;6.574;2023-04-19T08:16:04;1.80;;;0.73;;
52294;SDS011;38243;53.212;6.574;2023-04-19T08:18:30;2.08;;;0.70;;
52294;SDS011;38243;53.212;6.574;2023-04-19T08:20:57;4.90;;;1.10;;
52294;SDS011;38243;53.212;6.574;2023-04-19T08:23:22;4.38;;;1.00;;
52294;SDS011;38243;53.212;6.574;2023-04-19T08:25:49;7.07;;;1.42;;
52294;SDS011;38243;53.212;6.574;2023-04-19T08:28:15;6.10;;;0.73;;
52294;SDS011;38243;53.212;6.574;2023-04-19T08:30:42;3.90;;;1.00;;
52294;SDS011;38243;53.212;6.574;2023-04-19T08:33:07;3.30;;;0.95;;
52294;SDS011;38243;53.212;6.574;2023-04-19T08:35:34;3.17;;;1.00;;
52294;SDS011;38243;53.212;6.574;2023-04-19T08:38:02;1.02;;;0.63;;
52294;SDS011;38243;53.212;6.574;2023-04-19T08:40:32;5.35;;;0.90;;
52294;SDS011;38243;53.212;6.574;2023-04-19T08:42:58;7.33;;;1.00;;
52294;SDS011;38243;53.212;6.574;2023-04-19T08:45:27;5.72;;;1.20;;
52294;SDS011;38243;53.212;6.574;2023-04-19T08:47:55;3.00;;;0.63;;
52294;SDS011;38243;53.212;6.574;2023-04-19T08:50:22;4.55;;;1.10;;
52294;SDS011;38243;53.212;6.574;2023-04-19T08:52:48;3.35;;;0.68;;
52294;SDS011;38243;53.212;6.574;2023-04-19T08:55:14;3.70;;;1.00;;
52294;SDS011;38243;53.212;6.574;2023-04-19T08:57:40;2.10;;;0.73;;
52294;SDS011;38243;53.212;6.574;2023-04-19T09:00:06;3.30;;;0.60;;
52294;SDS011;38243;53.212;6.574;2023-04-19T09:05:17;2.28;;;0.70;;
52294;SDS011;38243;53.212;6.574;2023-04-19T09:07:44;2.45;;;0.63;;
52294;SDS011;38243;53.212;6.574;2023-04-19T09:10:11;1.23;;;0.70;;
52294;SDS011;38243;53.212;6.574;2023-04-19T09:12:39;1.65;;;0.57;;
52294;SDS011;38243;53.212;6.574;2023-04-19T09:15:06;3.23;;;0.97;;
52294;SDS011;38243;53.212;6.574;2023-04-19T09:17:37;1.60;;;0.60;;
52294;SDS011;38243;53.212;6.574;2023-04-19T09:20:04;0.85;;;0.70;;
52294;SDS011;38243;53.212;6.574;2023-04-19T09:22:31;1.40;;;0.60;;
52294;SDS011;38243;53.212;6.574;2023-04-19T09:24:57;1.95;;;0.68;;
52294;SDS011;38243;53.212;6.574;2023-04-19T09:27:25;1.60;;;0.60;;
52294;SDS011;38243;53.212;6.574;2023-04-19T09:29:58;1.30;;;0.80;;
52294;SDS011;38243;53.212;6.574;2023-04-19T09:32:25;1.77;;;0.70;;
52294;SDS011;38243;53.212;6.574;2023-04-19T09:37:22;2.30;;;0.70;;
52294;SDS011;38243;53.212;6.574;2023-04-19T09:39:48;3.30;;;0.80;;
52294;SDS011;38243;53.212;6.574;2023-04-19T09:42:14;2.05;;;0.70;;
52294;SDS011;38243;53.212;6.574;2023-04-19T09:44:54;1.73;;;0.60;;
52294;SDS011;38243;53.212;6.574;2023-04-19T09:47:24;2.00;;;0.60;;
52294;SDS011;38243;53.212;6.574;2023-04-19T09:50:11;0.98;;;0.60;;
52294;SDS011;38243;53.212;6.574;2023-04-19T09:52:36;2.00;;;0.60;;
52294;SDS011;38243;53.212;6.574;2023-04-19T09:55:03;0.93;;;0.50;;
52294;SDS011;38243;53.212;6.574;2023-04-19T09:57:31;4.95;;;0.60;;
52294;SDS011;38243;53.212;6.574;2023-04-19T09:59:59;1.73;;;0.70;;
52294;SDS011;38243;53.212;6.574;2023-04-19T10:02:32;2.75;;;0.52;;
52294;SDS011;38243;53.212;6.574;2023-04-19T10:04:58;0.80;;;0.52;;
52294;SDS011;38243;53.212;6.574;2023-04-19T10:07:25;1.75;;;0.52;;
52294;SDS011;38243;53.212;6.574;2023-04-19T10:09:53;0.95;;;0.70;;
52294;SDS011;38243;53.212;6.574;2023-04-19T10:12:24;1.30;;;0.60;;
52294;SDS011;38243;53.212;6.574;2023-04-19T10:14:54;2.47;;;0.70;;
52294;SDS011;38243;53.212;6.574;2023-04-19T10:17:23;1.17;;;0.40;;
52294;SDS011;38243;53.212;6.574;2023-04-19T10:19:55;1.95;;;0.70;;
52294;SDS011;38243;53.212;6.574;2023-04-19T10:22:25;1.42;;;0.40;;
52294;SDS011;38243;53.212;6.574;2023-04-19T10:25:08;1.30;;;0.60;;
52294;SDS011;38243;53.212;6.574;2023-04-19T10:27:39;1.25;;;0.57;;
52294;SDS011;38243;53.212;6.574;2023-04-19T10:30:22;2.00;;;0.40;;
52294;SDS011;38243;53.212;6.574;2023-04-19T10:32:52;1.63;;;0.60;;
52294;SDS011;38243;53.212;6.574;2023-04-19T10:35:24;1.40;;;0.70;;
52294;SDS011;38243;53.212;6.574;2023-04-19T10:38:03;1.50;;;0.57;;
52294;SDS011;38243;53.212;6.574;2023-04-19T10:40:55;2.45;;;0.60;;
52294;SDS011;38243;53.212;6.574;2023-04-19T10:43:26;1.80;;;0.50;;
52294;SDS011;38243;53.212;6.574;2023-04-19T10:46:15;1.30;;;0.52;;
52294;SDS011;38243;53.212;6.574;2023-04-19T10:51:17;1.65;;;0.40;;
52294;SDS011;38243;53.212;6.574;2023-04-19T10:59:21;1.20;;;0.37;;
52294;SDS011;38243;53.212;6.574;2023-04-19T11:01:57;0.60;;;0.38;;
52294;SDS011;38243;53.212;6.574;2023-04-19T11:09:36;1.67;;;0.68;;
52294;SDS011;38243;53.212;6.574;2023-04-19T11:14:36;3.03;;;1.47;;
52294;SDS011;38243;53.212;6.574;2023-04-19T11:22:23;3.78;;;1.75;;
52294;SDS011;38243;53.212;6.574;2023-04-19T11:25:10;7.22;;;2.47;;
52294;SDS011;38243;53.212;6.574;2023-04-19T11:27:37;6.63;;;2.53;;
52294;SDS011;38243;53.212;6.574;2023-04-19T11:30:10;7.40;;;2.90;;
52294;SDS011;38243;53.212;6.574;2023-04-19T11:32:47;9.95;;;3.33;;
52294;SDS011;38243;53.212;6.574;2023-04-19T11:35:18;8.27;;;3.17;;
52294;SDS011;38243;53.212;6.574;2023-04-19T11:37:47;5.73;;;2.70;;
52294;SDS011;38243;53.212;6.574;2023-04-19T11:40:14;7.35;;;2.75;;
52294;SDS011;38243;53.212;6.574;2023-04-19T11:42:41;6.95;;;2.55;;
52294;SDS011;38243;53.212;6.574;2023-04-19T11:45:08;6.32;;;2.45;;
52294;SDS011;38243;53.212;6.574;2023-04-19T11:47:34;4.90;;;2.25;;
52294;SDS011;38243;53.212;6.574;2023-04-19T11:53:09;5.82;;;2.10;;
52294;SDS011;38243;53.212;6.574;2023-04-19T11:55:35;5.03;;;1.90;;
52294;SDS011;38243;53.212;6.574;2023-04-19T11:58:01;3.35;;;1.70;;
52294;SDS011;38243;53.212;6.574;2023-04-19T12:00:27;5.40;;;1.73;;
52294;SDS011;38243;53.212;6.574;2023-04-19T12:02:54;3.90;;;1.80;;
52294;SDS011;38243;53.212;6.574;2023-04-19T12:05:22;4.78;;;1.85;;
52294;SDS011;38243;53.212;6.574;2023-04-19T12:08:01;2.75;;;1.33;;
52294;SDS011;38243;53.212;6.574;2023-04-19T12:10:27;3.30;;;1.50;;
52294;SDS011;38243;53.212;6.574;2023-04-19T12:12:53;3.90;;;1.70;;
52294;SDS011;38243;53.212;6.574;2023-04-19T12:15:19;3.00;;;1.20;;
52294;SDS011;38243;53.212;6.574;2023-04-19T12:17:55;4.28;;;1.75;;
52294;SDS011;38243;53.212;6.574;2023-04-19T12:20:32;2.85;;;1.35;;
52294;SDS011;38243;53.212;6.574;2023-04-19T12:23:00;2.45;;;1.13;;
52294;SDS011;38243;53.212;6.574;2023-04-19T12:25:29;4.80;;;1.67;;
52294;SDS011;38243;53.212;6.574;2023-04-19T12:27:56;3.00;;;1.17;;
52294;SDS011;38243;53.212;6.574;2023-04-19T12:30:22;2.83;;;1.08;;
52294;SDS011;38243;53.212;6.574;2023-04-19T12:32:48;2.73;;;1.37;;
52294;SDS011;38243;53.212;6.574;2023-04-19T12:35:15;7.28;;;1.40;;
52294;SDS011;38243;53.212;6.574;2023-04-19T12:37:42;3.10;;;1.30;;
52294;SDS011;38243;53.212;6.574;2023-04-19T12:40:08;3.67;;;1.25;;
52294;SDS011;38243;53.212;6.574;2023-04-19T12:42:34;3.67;;;0.98;;
52294;SDS011;38243;53.212;6.574;2023-04-19T12:45:00;2.28;;;0.90;;
52294;SDS011;38243;53.212;6.574;2023-04-19T12:47:26;2.95;;;0.90;;
52294;SDS011;38243;53.212;6.574;2023-04-19T12:49:51;1.60;;;0.80;;
52294;SDS011;38243;53.212;6.574;2023-04-19T12:52:19;3.03;;;0.93;;
52294;SDS011;38243;53.212;6.574;2023-04-19T12:54:45;2.45;;;0.88;;
52294;SDS011;38243;53.212;6.574;2023-04-19T12:57:11;3.08;;;1.10;;
52294;SDS011;38243;53.212;6.574;2023-04-19T12:59:37;5.13;;;1.00;;
52294;SDS011;38243;53.212;6.574;2023-04-19T13:02:04;1.88;;;0.80;;
52294;SDS011;38243;53.212;6.574;2023-04-19T13:04:31;2.75;;;1.00;;
52294;SDS011;38243;53.212;6.574;2023-04-19T13:06:57;2.50;;;0.95;;
52294;SDS011;38243;53.212;6.574;2023-04-19T13:09:22;1.30;;;0.88;;
52294;SDS011;38243;53.212;6.574;2023-04-19T13:11:48;2.00;;;0.88;;
52294;SDS011;38243;53.212;6.574;2023-04-19T13:14:15;1.90;;;0.80;;
52294;SDS011;38243;53.212;6.574;2023-04-19T13:16:41;3.30;;;0.95;;
52294;SDS011;38243;53.212;6.574;2023-04-19T13:19:06;2.83;;;0.80;;
52294;SDS011;38243;53.212;6.574;2023-04-19T13:21:32;1.20;;;0.88;;
52294;SDS011;38243;53.212;6.574;2023-04-19T13:23:58;1.45;;;0.85;;
52294;SDS011;38243;53.212;6.574;2023-04-19T13:26:24;4.03;;;1.00;;
52294;SDS011;38243;53.212;6.574;2023-04-19T13:28:50;1.98;;;0.90;;
52294;SDS011;38243;53.212;6.574;2023-04-19T13:31:15;2.90;;;1.00;;
52294;SDS011;38243;53.212;6.574;2023-04-19T13:33:41;4.38;;;0.88;;
52294;SDS011;38243;53.212;6.574;2023-04-19T13:36:07;1.67;;;0.80;;
52294;SDS011;38243;53.212;6.574;2023-04-19T13:38:33;1.77;;;1.00;;
52294;SDS011;38243;53.212;6.574;2023-04-19T13:40:59;1.20;;;0.80;;
52294;SDS011;38243;53.212;6.574;2023-04-19T13:43:26;2.25;;;1.00;;
52294;SDS011;38243;53.212;6.574;2023-04-19T13:45:52;2.42;;;0.77;;
52294;SDS011;38243;53.212;6.574;2023-04-19T13:48:18;1.48;;;0.90;;
52294;SDS011;38243;53.212;6.574;2023-04-19T13:50:44;2.28;;;1.30;;
52294;SDS011;38243;53.212;6.574;2023-04-19T13:53:10;2.00;;;1.00;;
52294;SDS011;38243;53.212;6.574;2023-04-19T13:55:36;1.87;;;0.90;;
52294;SDS011;38243;53.212;6.574;2023-04-19T13:58:02;2.55;;;0.90;;
52294;SDS011;38243;53.212;6.574;2023-04-19T14:00:28;1.80;;;0.88;;
52294;SDS011;38243;53.212;6.574;2023-04-19T14:02:53;2.95;;;1.00;;
52294;SDS011;38243;53.212;6.574;2023-04-19T14:05:20;2.42;;;1.08;;
52294;SDS011;38243;53.212;6.574;2023-04-19T14:07:46;2.53;;;1.13;;
52294;SDS011;38243;53.212;6.574;2023-04-19T14:10:12;2.08;;;1.08;;
52294;SDS011;38243;53.212;6.574;2023-04-19T14:12:38;1.70;;;1.00;;
52294;SDS011;38243;53.212;6.574;2023-04-19T14:15:04;1.88;;;1.00;;
52294;SDS011;38243;53.212;6.574;2023-04-19T14:17:30;1.73;;;0.90;;
52294;SDS011;38243;53.212;6.574;2023-04-19T14:19:56;1.38;;;0.90;;
52294;SDS011;38243;53.212;6.574;2023-04-19T14:22:22;1.75;;;1.15;;
52294;SDS011;38243;53.212;6.574;2023-04-19T14:24:48;2.70;;;1.00;;
52294;SDS011;38243;53.212;6.574;2023-04-19T14:27:13;1.75;;;0.77;;
52294;SDS011;38243;53.212;6.574;2023-04-19T14:29:39;2.37;;;0.93;;
52294;SDS011;38243;53.212;6.574;2023-04-19T14:32:05;2.90;;;0.93;;
52294;SDS011;38243;53.212;6.574;2023-04-19T14:34:31;2.10;;;0.90;;
52294;SDS011;38243;53.212;6.574;2023-04-19T14:36:57;1.92;;;0.80;;
52294;SDS011;38243;53.212;6.574;2023-04-19T14:39:23;1.70;;;0.87;;
52294;SDS011;38243;53.212;6.574;2023-04-19T14:41:48;2.08;;;0.70;;
52294;SDS011;38243;53.212;6.574;2023-04-19T14:44:15;2.85;;;1.25;;
52294;SDS011;38243;53.212;6.574;2023-04-19T14:46:41;2.77;;;1.13;;
52294;SDS011;38243;53.212;6.574;2023-04-19T14:49:06;2.10;;;0.90;;
52294;SDS011;38243;53.212;6.574;2023-04-19T14:51:32;1.63;;;0.90;;
52294;SDS011;38243;53.212;6.574;2023-04-19T14:53:58;1.33;;;0.85;;
52294;SDS011;38243;53.212;6.574;2023-04-19T14:56:24;1.67;;;0.80;;
52294;SDS011;38243;53.212;6.574;2023-04-19T14:58:53;0.88;;;0.88;;
52294;SDS011;38243;53.212;6.574;2023-04-19T15:01:19;1.53;;;0.80;;
52294;SDS011;38243;53.212;6.574;2023-04-19T15:03:47;3.40;;;0.95;;
52294;SDS011;38243;53.212;6.574;2023-04-19T15:06:16;1.52;;;0.70;;
52294;SDS011;38243;53.212;6.574;2023-04-19T15:08:41;2.60;;;0.90;;
52294;SDS011;38243;53.212;6.574;2023-04-19T15:11:08;1.10;;;0.70;;
52294;SDS011;38243;53.212;6.574;2023-04-19T15:13:34;2.08;;;0.80;;
52294;SDS011;38243;53.212;6.574;2023-04-19T15:16:00;1.55;;;0.80;;